Авиационная погода в Пскове

Регион: 
Погода METAR: 
ULOO 271500Z 30004MPS 270V360 9999 BKN018 OVC029 02/M01 Q1020 R01/290050 NOSIG RMK QFE760
Время наблюдения
2021-02-27T15:00:00Z
Температура C
2.0
Точка росы
-1.0
Направление ветра
300
Скорость ветра (узлы)
8
Метео видимость
6.21
Явления погоды
Условия полета
MVFR